sensor_id;sensor_type;location;lat;lon;timestamp;P1;durP1;ratioP1;P2;durP2;ratioP2
25717;SDS011;13574;52.040;5.692;2022-08-19T00:01:07;14.20;;;11.82;;
25717;SDS011;13574;52.040;5.692;2022-08-19T00:03:33;16.85;;;11.77;;
25717;SDS011;13574;52.040;5.692;2022-08-19T00:05:59;15.48;;;11.88;;
25717;SDS011;13574;52.040;5.692;2022-08-19T00:08:25;13.13;;;11.77;;
25717;SDS011;13574;52.040;5.692;2022-08-19T00:10:50;15.70;;;11.90;;
25717;SDS011;13574;52.040;5.692;2022-08-19T00:13:17;13.77;;;11.55;;
25717;SDS011;13574;52.040;5.692;2022-08-19T00:15:42;13.48;;;11.23;;
25717;SDS011;13574;52.040;5.692;2022-08-19T00:18:09;13.60;;;10.40;;
25717;SDS011;13574;52.040;5.692;2022-08-19T00:20:35;10.80;;;9.35;;
25717;SDS011;13574;52.040;5.692;2022-08-19T00:23:03;11.10;;;9.10;;
25717;SDS011;13574;52.040;5.692;2022-08-19T00:25:28;8.70;;;7.80;;
25717;SDS011;13574;52.040;5.692;2022-08-19T00:27:54;11.82;;;8.98;;
25717;SDS011;13574;52.040;5.692;2022-08-19T00:30:20;10.90;;;8.95;;
25717;SDS011;13574;52.040;5.692;2022-08-19T00:32:46;10.65;;;9.55;;
25717;SDS011;13574;52.040;5.692;2022-08-19T00:35:12;12.50;;;10.25;;
25717;SDS011;13574;52.040;5.692;2022-08-19T00:37:38;12.35;;;10.77;;
25717;SDS011;13574;52.040;5.692;2022-08-19T00:40:08;13.05;;;10.35;;
25717;SDS011;13574;52.040;5.692;2022-08-19T00:42:35;15.20;;;11.80;;
25717;SDS011;13574;52.040;5.692;2022-08-19T00:45:01;15.27;;;11.82;;
25717;SDS011;13574;52.040;5.692;2022-08-19T00:47:33;16.70;;;10.35;;
25717;SDS011;13574;52.040;5.692;2022-08-19T00:49:59;12.00;;;10.30;;
25717;SDS011;13574;52.040;5.692;2022-08-19T00:52:34;12.80;;;10.23;;
25717;SDS011;13574;52.040;5.692;2022-08-19T00:55:05;12.52;;;9.90;;
25717;SDS011;13574;52.040;5.692;2022-08-19T00:57:37;14.38;;;11.50;;
25717;SDS011;13574;52.040;5.692;2022-08-19T01:00:07;15.13;;;12.70;;
25717;SDS011;13574;52.040;5.692;2022-08-19T01:02:37;15.07;;;12.07;;
25717;SDS011;13574;52.040;5.692;2022-08-19T01:05:04;12.50;;;10.23;;
25717;SDS011;13574;52.040;5.692;2022-08-19T01:07:33;14.52;;;12.55;;
25717;SDS011;13574;52.040;5.692;2022-08-19T01:10:00;14.63;;;12.60;;
25717;SDS011;13574;52.040;5.692;2022-08-19T01:12:26;13.73;;;11.85;;
25717;SDS011;13574;52.040;5.692;2022-08-19T01:14:52;13.18;;;11.77;;
25717;SDS011;13574;52.040;5.692;2022-08-19T01:17:20;13.05;;;11.57;;
25717;SDS011;13574;52.040;5.692;2022-08-19T01:19:46;15.70;;;12.65;;
25717;SDS011;13574;52.040;5.692;2022-08-19T01:22:47;14.43;;;12.77;;
25717;SDS011;13574;52.040;5.692;2022-08-19T01:25:04;14.23;;;12.73;;
25717;SDS011;13574;52.040;5.692;2022-08-19T01:27:38;16.73;;;13.27;;
25717;SDS011;13574;52.040;5.692;2022-08-19T01:30:06;15.57;;;12.40;;
25717;SDS011;13574;52.040;5.692;2022-08-19T01:32:32;17.88;;;13.77;;
25717;SDS011;13574;52.040;5.692;2022-08-19T01:34:58;15.45;;;13.25;;
25717;SDS011;13574;52.040;5.692;2022-08-19T01:37:26;15.07;;;13.02;;
25717;SDS011;13574;52.040;5.692;2022-08-19T01:39:52;15.25;;;13.65;;
25717;SDS011;13574;52.040;5.692;2022-08-19T01:42:18;15.10;;;13.48;;
25717;SDS011;13574;52.040;5.692;2022-08-19T01:44:44;18.45;;;14.32;;
25717;SDS011;13574;52.040;5.692;2022-08-19T01:47:10;16.58;;;14.43;;
25717;SDS011;13574;52.040;5.692;2022-08-19T01:49:36;16.15;;;14.45;;
25717;SDS011;13574;52.040;5.692;2022-08-19T01:52:03;19.50;;;14.30;;
25717;SDS011;13574;52.040;5.692;2022-08-19T01:54:29;16.88;;;14.75;;
25717;SDS011;13574;52.040;5.692;2022-08-19T01:57:01;16.63;;;14.32;;
25717;SDS011;13574;52.040;5.692;2022-08-19T01:59:33;19.85;;;15.80;;
25717;SDS011;13574;52.040;5.692;2022-08-19T02:02:01;20.17;;;16.05;;
25717;SDS011;13574;52.040;5.692;2022-08-19T02:04:29;18.27;;;15.45;;
25717;SDS011;13574;52.040;5.692;2022-08-19T02:06:54;17.80;;;15.80;;
25717;SDS011;13574;52.040;5.692;2022-08-19T02:09:20;19.88;;;16.67;;
25717;SDS011;13574;52.040;5.692;2022-08-19T02:11:46;22.42;;;17.35;;
25717;SDS011;13574;52.040;5.692;2022-08-19T02:14:11;21.77;;;17.75;;
25717;SDS011;13574;52.040;5.692;2022-08-19T02:16:38;21.65;;;17.38;;
25717;SDS011;13574;52.040;5.692;2022-08-19T02:19:05;19.13;;;17.05;;
25717;SDS011;13574;52.040;5.692;2022-08-19T02:21:31;20.13;;;17.73;;
25717;SDS011;13574;52.040;5.692;2022-08-19T02:23:58;23.35;;;17.63;;
25717;SDS011;13574;52.040;5.692;2022-08-19T02:26:24;21.98;;;16.52;;
25717;SDS011;13574;52.040;5.692;2022-08-19T02:28:51;21.02;;;17.45;;
25717;SDS011;13574;52.040;5.692;2022-08-19T02:31:19;21.13;;;17.80;;
25717;SDS011;13574;52.040;5.692;2022-08-19T02:33:46;21.65;;;17.75;;
25717;SDS011;13574;52.040;5.692;2022-08-19T02:36:12;22.02;;;18.00;;
25717;SDS011;13574;52.040;5.692;2022-08-19T02:38:39;23.38;;;18.02;;
25717;SDS011;13574;52.040;5.692;2022-08-19T02:41:11;17.88;;;15.57;;
25717;SDS011;13574;52.040;5.692;2022-08-19T02:43:45;21.55;;;17.63;;
25717;SDS011;13574;52.040;5.692;2022-08-19T02:46:15;21.20;;;17.20;;
25717;SDS011;13574;52.040;5.692;2022-08-19T02:48:48;19.33;;;16.45;;
25717;SDS011;13574;52.040;5.692;2022-08-19T02:51:15;19.52;;;16.08;;
25717;SDS011;13574;52.040;5.692;2022-08-19T02:53:42;17.35;;;13.35;;
25717;SDS011;13574;52.040;5.692;2022-08-19T02:56:08;17.98;;;14.95;;
25717;SDS011;13574;52.040;5.692;2022-08-19T02:58:34;18.42;;;16.42;;
25717;SDS011;13574;52.040;5.692;2022-08-19T03:00:59;21.05;;;15.30;;
25717;SDS011;13574;52.040;5.692;2022-08-19T03:03:25;16.17;;;13.88;;
25717;SDS011;13574;52.040;5.692;2022-08-19T03:05:51;20.13;;;16.27;;
25717;SDS011;13574;52.040;5.692;2022-08-19T03:08:17;16.52;;;14.60;;
25717;SDS011;13574;52.040;5.692;2022-08-19T03:10:43;13.63;;;11.80;;
25717;SDS011;13574;52.040;5.692;2022-08-19T03:13:16;17.95;;;15.48;;
25717;SDS011;13574;52.040;5.692;2022-08-19T03:15:43;15.98;;;14.23;;
25717;SDS011;13574;52.040;5.692;2022-08-19T03:18:10;18.52;;;14.73;;
25717;SDS011;13574;52.040;5.692;2022-08-19T03:20:55;18.60;;;16.35;;
25717;SDS011;13574;52.040;5.692;2022-08-19T03:23:21;18.77;;;15.63;;
25717;SDS011;13574;52.040;5.692;2022-08-19T03:25:48;17.70;;;13.60;;
25717;SDS011;13574;52.040;5.692;2022-08-19T03:28:15;19.40;;;15.85;;
25717;SDS011;13574;52.040;5.692;2022-08-19T03:30:42;19.83;;;15.48;;
25717;SDS011;13574;52.040;5.692;2022-08-19T03:33:21;19.13;;;15.52;;
25717;SDS011;13574;52.040;5.692;2022-08-19T03:35:46;16.65;;;14.75;;
25717;SDS011;13574;52.040;5.692;2022-08-19T03:38:12;16.52;;;14.00;;
25717;SDS011;13574;52.040;5.692;2022-08-19T03:40:38;16.50;;;13.95;;
25717;SDS011;13574;52.040;5.692;2022-08-19T03:43:03;16.80;;;14.38;;
25717;SDS011;13574;52.040;5.692;2022-08-19T03:45:30;14.90;;;13.30;;
25717;SDS011;13574;52.040;5.692;2022-08-19T03:47:56;17.52;;;15.27;;
25717;SDS011;13574;52.040;5.692;2022-08-19T03:50:21;16.10;;;14.15;;
25717;SDS011;13574;52.040;5.692;2022-08-19T03:52:48;18.90;;;13.43;;
25717;SDS011;13574;52.040;5.692;2022-08-19T03:55:15;20.13;;;15.68;;
25717;SDS011;13574;52.040;5.692;2022-08-19T03:57:41;19.38;;;15.85;;
25717;SDS011;13574;52.040;5.692;2022-08-19T04:00:07;18.70;;;16.50;;
25717;SDS011;13574;52.040;5.692;2022-08-19T04:02:34;18.52;;;15.27;;
25717;SDS011;13574;52.040;5.692;2022-08-19T04:05:00;19.48;;;16.52;;
25717;SDS011;13574;52.040;5.692;2022-08-19T04:07:25;21.33;;;17.38;;
25717;SDS011;13574;52.040;5.692;2022-08-19T04:09:51;19.23;;;15.70;;
25717;SDS011;13574;52.040;5.692;2022-08-19T04:12:18;17.90;;;15.05;;
25717;SDS011;13574;52.040;5.692;2022-08-19T04:14:45;17.63;;;14.60;;
25717;SDS011;13574;52.040;5.692;2022-08-19T04:17:11;19.45;;;15.23;;
25717;SDS011;13574;52.040;5.692;2022-08-19T04:19:38;19.45;;;17.20;;
25717;SDS011;13574;52.040;5.692;2022-08-19T04:22:04;20.80;;;16.42;;
25717;SDS011;13574;52.040;5.692;2022-08-19T04:24:32;18.60;;;16.20;;
25717;SDS011;13574;52.040;5.692;2022-08-19T04:26:59;22.70;;;18.33;;
25717;SDS011;13574;52.040;5.692;2022-08-19T04:29:25;22.30;;;18.10;;
25717;SDS011;13574;52.040;5.692;2022-08-19T04:31:54;20.40;;;17.58;;
25717;SDS011;13574;52.040;5.692;2022-08-19T04:34:22;20.27;;;17.88;;
25717;SDS011;13574;52.040;5.692;2022-08-19T04:36:50;23.42;;;17.83;;
25717;SDS011;13574;52.040;5.692;2022-08-19T04:39:18;19.85;;;17.15;;
25717;SDS011;13574;52.040;5.692;2022-08-19T04:41:46;20.05;;;17.80;;
25717;SDS011;13574;52.040;5.692;2022-08-19T04:44:31;19.63;;;16.90;;
25717;SDS011;13574;52.040;5.692;2022-08-19T04:46:57;21.25;;;18.30;;
25717;SDS011;13574;52.040;5.692;2022-08-19T04:49:23;19.05;;;16.58;;
25717;SDS011;13574;52.040;5.692;2022-08-19T04:51:51;22.48;;;18.30;;
25717;SDS011;13574;52.040;5.692;2022-08-19T04:54:18;22.15;;;17.92;;
25717;SDS011;13574;52.040;5.692;2022-08-19T04:56:47;22.10;;;18.05;;
25717;SDS011;13574;52.040;5.692;2022-08-19T04:59:17;19.65;;;16.70;;
25717;SDS011;13574;52.040;5.692;2022-08-19T05:01:45;23.27;;;17.88;;
25717;SDS011;13574;52.040;5.692;2022-08-19T05:04:14;21.83;;;17.63;;
25717;SDS011;13574;52.040;5.692;2022-08-19T05:06:41;18.77;;;16.17;;
25717;SDS011;13574;52.040;5.692;2022-08-19T05:09:08;18.67;;;15.38;;
25717;SDS011;13574;52.040;5.692;2022-08-19T05:11:35;20.35;;;17.75;;
25717;SDS011;13574;52.040;5.692;2022-08-19T05:14:08;21.73;;;17.95;;
25717;SDS011;13574;52.040;5.692;2022-08-19T05:16:34;21.80;;;17.95;;
25717;SDS011;13574;52.040;5.692;2022-08-19T05:19:00;25.13;;;19.00;;
25717;SDS011;13574;52.040;5.692;2022-08-19T05:21:45;23.02;;;17.88;;
25717;SDS011;13574;52.040;5.692;2022-08-19T05:24:30;24.83;;;19.02;;
25717;SDS011;13574;52.040;5.692;2022-08-19T05:26:57;24.20;;;19.77;;
25717;SDS011;13574;52.040;5.692;2022-08-19T05:29:23;18.25;;;14.82;;
25717;SDS011;13574;52.040;5.692;2022-08-19T05:31:51;22.23;;;17.92;;
25717;SDS011;13574;52.040;5.692;2022-08-19T05:34:18;19.23;;;15.77;;
25717;SDS011;13574;52.040;5.692;2022-08-19T05:36:47;18.75;;;16.40;;
25717;SDS011;13574;52.040;5.692;2022-08-19T05:39:15;21.50;;;16.75;;
25717;SDS011;13574;52.040;5.692;2022-08-19T05:41:46;20.05;;;16.23;;
25717;SDS011;13574;52.040;5.692;2022-08-19T05:44:24;19.02;;;15.07;;
25717;SDS011;13574;52.040;5.692;2022-08-19T05:46:51;19.70;;;15.40;;
25717;SDS011;13574;52.040;5.692;2022-08-19T05:49:18;23.13;;;16.25;;
25717;SDS011;13574;52.040;5.692;2022-08-19T05:51:45;20.15;;;16.55;;
25717;SDS011;13574;52.040;5.692;2022-08-19T05:54:10;16.65;;;14.38;;
25717;SDS011;13574;52.040;5.692;2022-08-19T05:56:38;21.10;;;16.70;;
25717;SDS011;13574;52.040;5.692;2022-08-19T05:59:05;22.95;;;17.73;;
25717;SDS011;13574;52.040;5.692;2022-08-19T06:01:35;28.13;;;20.50;;
25717;SDS011;13574;52.040;5.692;2022-08-19T06:04:02;23.40;;;18.17;;
25717;SDS011;13574;52.040;5.692;2022-08-19T06:06:28;21.00;;;15.35;;
25717;SDS011;13574;52.040;5.692;2022-08-19T06:08:54;24.10;;;17.95;;
25717;SDS011;13574;52.040;5.692;2022-08-19T06:11:24;19.80;;;16.27;;
25717;SDS011;13574;52.040;5.692;2022-08-19T06:14:00;23.38;;;17.77;;
25717;SDS011;13574;52.040;5.692;2022-08-19T06:16:31;21.77;;;16.90;;
25717;SDS011;13574;52.040;5.692;2022-08-19T06:19:07;23.05;;;17.50;;
25717;SDS011;13574;52.040;5.692;2022-08-19T06:21:37;28.65;;;20.88;;
25717;SDS011;13574;52.040;5.692;2022-08-19T06:24:05;29.13;;;20.70;;
25717;SDS011;13574;52.040;5.692;2022-08-19T06:26:35;28.35;;;20.65;;
25717;SDS011;13574;52.040;5.692;2022-08-19T06:29:04;33.05;;;23.23;;
25717;SDS011;13574;52.040;5.692;2022-08-19T06:31:31;33.08;;;23.23;;
25717;SDS011;13574;52.040;5.692;2022-08-19T06:33:59;31.75;;;22.23;;
25717;SDS011;13574;52.040;5.692;2022-08-19T06:36:34;30.83;;;21.75;;
25717;SDS011;13574;52.040;5.692;2022-08-19T06:39:05;38.03;;;26.02;;
25717;SDS011;13574;52.040;5.692;2022-08-19T06:41:36;47.00;;;31.30;;
25717;SDS011;13574;52.040;5.692;2022-08-19T06:44:04;47.85;;;32.25;;
25717;SDS011;13574;52.040;5.692;2022-08-19T06:46:31;48.92;;;30.95;;
25717;SDS011;13574;52.040;5.692;2022-08-19T06:48:59;58.25;;;35.17;;
25717;SDS011;13574;52.040;5.692;2022-08-19T06:51:25;58.60;;;36.38;;
25717;SDS011;13574;52.040;5.692;2022-08-19T06:53:52;57.95;;;36.25;;
25717;SDS011;13574;52.040;5.692;2022-08-19T06:56:20;51.10;;;31.77;;
25717;SDS011;13574;52.040;5.692;2022-08-19T06:58:56;59.67;;;36.90;;
25717;SDS011;13574;52.040;5.692;2022-08-19T07:01:22;58.72;;;35.53;;
25717;SDS011;13574;52.040;5.692;2022-08-19T07:03:47;57.47;;;34.33;;
25717;SDS011;13574;52.040;5.692;2022-08-19T07:06:14;53.17;;;31.45;;
25717;SDS011;13574;52.040;5.692;2022-08-19T07:08:45;60.80;;;35.25;;
25717;SDS011;13574;52.040;5.692;2022-08-19T07:11:19;58.03;;;32.95;;
25717;SDS011;13574;52.040;5.692;2022-08-19T07:13:56;71.63;;;39.05;;
25717;SDS011;13574;52.040;5.692;2022-08-19T07:16:22;80.65;;;42.28;;
25717;SDS011;13574;52.040;5.692;2022-08-19T07:18:55;69.75;;;39.70;;
25717;SDS011;13574;52.040;5.692;2022-08-19T07:21:49;73.78;;;41.78;;
25717;SDS011;13574;52.040;5.692;2022-08-19T07:24:22;75.72;;;43.85;;
25717;SDS011;13574;52.040;5.692;2022-08-19T07:26:50;77.63;;;44.88;;
25717;SDS011;13574;52.040;5.692;2022-08-19T07:29:17;81.32;;;45.88;;
25717;SDS011;13574;52.040;5.692;2022-08-19T07:31:48;71.85;;;42.92;;
25717;SDS011;13574;52.040;5.692;2022-08-19T07:34:15;77.65;;;45.55;;
25717;SDS011;13574;52.040;5.692;2022-08-19T07:36:43;74.60;;;45.00;;
25717;SDS011;13574;52.040;5.692;2022-08-19T07:39:28;79.13;;;48.42;;
25717;SDS011;13574;52.040;5.692;2022-08-19T07:41:56;72.50;;;42.60;;
25717;SDS011;13574;52.040;5.692;2022-08-19T07:44:22;72.22;;;42.65;;
25717;SDS011;13574;52.040;5.692;2022-08-19T07:46:49;71.03;;;44.03;;
25717;SDS011;13574;52.040;5.692;2022-08-19T07:49:21;78.53;;;49.03;;
25717;SDS011;13574;52.040;5.692;2022-08-19T07:51:59;72.72;;;46.33;;
25717;SDS011;13574;52.040;5.692;2022-08-19T07:54:30;68.57;;;43.17;;
25717;SDS011;13574;52.040;5.692;2022-08-19T07:56:59;72.97;;;46.83;;
25717;SDS011;13574;52.040;5.692;2022-08-19T07:59:25;66.50;;;43.17;;
25717;SDS011;13574;52.040;5.692;2022-08-19T08:01:51;67.43;;;43.83;;
25717;SDS011;13574;52.040;5.692;2022-08-19T08:04:17;65.65;;;45.15;;
25717;SDS011;13574;52.040;5.692;2022-08-19T08:07:02;61.75;;;43.25;;
25717;SDS011;13574;52.040;5.692;2022-08-19T08:09:47;56.85;;;40.50;;
25717;SDS011;13574;52.040;5.692;2022-08-19T08:12:21;53.42;;;39.45;;
25717;SDS011;13574;52.040;5.692;2022-08-19T08:14:51;51.28;;;40.05;;
25717;SDS011;13574;52.040;5.692;2022-08-19T08:17:20;50.97;;;39.50;;
25717;SDS011;13574;52.040;5.692;2022-08-19T08:19:47;52.13;;;41.75;;
25717;SDS011;13574;52.040;5.692;2022-08-19T08:22:15;50.88;;;40.22;;
25717;SDS011;13574;52.040;5.692;2022-08-19T08:25:06;51.63;;;41.13;;
25717;SDS011;13574;52.040;5.692;2022-08-19T08:27:35;43.80;;;37.40;;
25717;SDS011;13574;52.040;5.692;2022-08-19T08:30:04;46.78;;;36.90;;
25717;SDS011;13574;52.040;5.692;2022-08-19T08:32:34;46.45;;;38.53;;
25717;SDS011;13574;52.040;5.692;2022-08-19T08:35:01;46.05;;;37.85;;
25717;SDS011;13574;52.040;5.692;2022-08-19T08:37:27;44.50;;;37.83;;
25717;SDS011;13574;52.040;5.692;2022-08-19T08:39:53;42.85;;;36.33;;
25717;SDS011;13574;52.040;5.692;2022-08-19T08:42:21;46.80;;;39.75;;
25717;SDS011;13574;52.040;5.692;2022-08-19T08:47:30;43.17;;;36.95;;
25717;SDS011;13574;52.040;5.692;2022-08-19T08:52:48;46.67;;;38.05;;
25717;SDS011;13574;52.040;5.692;2022-08-19T08:55:19;43.75;;;37.47;;
25717;SDS011;13574;52.040;5.692;2022-08-19T09:00:22;40.80;;;35.15;;
25717;SDS011;13574;52.040;5.692;2022-08-19T09:02:53;39.20;;;32.08;;
25717;SDS011;13574;52.040;5.692;2022-08-19T09:05:19;38.72;;;34.15;;
25717;SDS011;13574;52.040;5.692;2022-08-19T09:12:57;39.17;;;31.52;;
25717;SDS011;13574;52.040;5.692;2022-08-19T09:15:46;36.95;;;29.45;;
25717;SDS011;13574;52.040;5.692;2022-08-19T09:18:16;34.58;;;27.00;;
25717;SDS011;13574;52.040;5.692;2022-08-19T09:20:42;32.85;;;26.85;;
25717;SDS011;13574;52.040;5.692;2022-08-19T09:23:07;34.65;;;26.30;;
25717;SDS011;13574;52.040;5.692;2022-08-19T09:25:34;32.70;;;25.85;;
25717;SDS011;13574;52.040;5.692;2022-08-19T09:28:00;35.92;;;26.98;;
25717;SDS011;13574;52.040;5.692;2022-08-19T09:30:31;32.80;;;25.55;;
25717;SDS011;13574;52.040;5.692;2022-08-19T09:32:59;35.55;;;25.88;;
25717;SDS011;13574;52.040;5.692;2022-08-19T09:35:26;33.28;;;26.27;;
25717;SDS011;13574;52.040;5.692;2022-08-19T09:37:55;36.97;;;26.55;;
25717;SDS011;13574;52.040;5.692;2022-08-19T09:40:22;36.83;;;26.50;;
25717;SDS011;13574;52.040;5.692;2022-08-19T09:42:48;32.33;;;25.25;;
25717;SDS011;13574;52.040;5.692;2022-08-19T09:45:14;31.77;;;25.17;;
25717;SDS011;13574;52.040;5.692;2022-08-19T09:47:42;32.75;;;25.00;;
25717;SDS011;13574;52.040;5.692;2022-08-19T09:50:09;30.00;;;23.50;;
25717;SDS011;13574;52.040;5.692;2022-08-19T09:52:36;32.03;;;24.33;;
25717;SDS011;13574;52.040;5.692;2022-08-19T09:55:06;31.25;;;24.02;;
25717;SDS011;13574;52.040;5.692;2022-08-19T09:57:33;29.77;;;22.17;;
25717;SDS011;13574;52.040;5.692;2022-08-19T09:59:59;30.10;;;22.13;;
25717;SDS011;13574;52.040;5.692;2022-08-19T10:02:24;28.33;;;22.77;;
25717;SDS011;13574;52.040;5.692;2022-08-19T10:04:51;30.77;;;23.25;;
25717;SDS011;13574;52.040;5.692;2022-08-19T10:07:36;30.92;;;23.48;;
25717;SDS011;13574;52.040;5.692;2022-08-19T10:10:05;32.20;;;23.77;;
25717;SDS011;13574;52.040;5.692;2022-08-19T10:12:32;31.73;;;23.63;;
25717;SDS011;13574;52.040;5.692;2022-08-19T10:14:59;27.80;;;22.23;;
25717;SDS011;13574;52.040;5.692;2022-08-19T10:17:27;29.85;;;22.88;;
25717;SDS011;13574;52.040;5.692;2022-08-19T10:19:54;30.60;;;21.77;;
25717;SDS011;13574;52.040;5.692;2022-08-19T10:22:20;29.15;;;21.67;;
25717;SDS011;13574;52.040;5.692;2022-08-19T10:24:46;26.48;;;21.50;;
25717;SDS011;13574;52.040;5.692;2022-08-19T10:27:12;29.30;;;22.30;;
25717;SDS011;13574;52.040;5.692;2022-08-19T10:29:39;28.65;;;22.77;;
25717;SDS011;13574;52.040;5.692;2022-08-19T10:32:06;27.35;;;21.10;;
25717;SDS011;13574;52.040;5.692;2022-08-19T10:34:33;24.85;;;18.77;;
25717;SDS011;13574;52.040;5.692;2022-08-19T10:37:02;23.60;;;19.13;;
25717;SDS011;13574;52.040;5.692;2022-08-19T10:39:31;25.48;;;19.83;;
25717;SDS011;13574;52.040;5.692;2022-08-19T10:41:59;28.08;;;20.70;;
25717;SDS011;13574;52.040;5.692;2022-08-19T10:44:28;29.73;;;21.27;;
25717;SDS011;13574;52.040;5.692;2022-08-19T10:46:55;25.88;;;18.80;;
25717;SDS011;13574;52.040;5.692;2022-08-19T10:49:20;23.27;;;18.80;;
25717;SDS011;13574;52.040;5.692;2022-08-19T10:51:46;30.67;;;20.75;;
25717;SDS011;13574;52.040;5.692;2022-08-19T10:54:30;25.52;;;20.23;;
25717;SDS011;13574;52.040;5.692;2022-08-19T10:57:16;28.73;;;20.63;;
25717;SDS011;13574;52.040;5.692;2022-08-19T10:59:42;26.80;;;19.75;;
25717;SDS011;13574;52.040;5.692;2022-08-19T11:02:08;27.75;;;19.27;;
25717;SDS011;13574;52.040;5.692;2022-08-19T11:04:37;28.00;;;21.20;;
25717;SDS011;13574;52.040;5.692;2022-08-19T11:07:03;28.20;;;19.60;;
25717;SDS011;13574;52.040;5.692;2022-08-19T11:09:29;25.20;;;19.52;;
25717;SDS011;13574;52.040;5.692;2022-08-19T11:11:56;25.20;;;18.25;;
25717;SDS011;13574;52.040;5.692;2022-08-19T11:14:22;26.80;;;20.20;;
25717;SDS011;13574;52.040;5.692;2022-08-19T11:16:50;28.58;;;19.98;;
25717;SDS011;13574;52.040;5.692;2022-08-19T11:19:20;26.48;;;20.58;;
25717;SDS011;13574;52.040;5.692;2022-08-19T11:21:48;28.10;;;20.65;;
25717;SDS011;13574;52.040;5.692;2022-08-19T11:24:16;28.88;;;20.77;;
25717;SDS011;13574;52.040;5.692;2022-08-19T11:26:45;23.77;;;19.38;;
25717;SDS011;13574;52.040;5.692;2022-08-19T11:29:14;31.33;;;21.20;;
25717;SDS011;13574;52.040;5.692;2022-08-19T11:31:42;25.77;;;19.27;;
25717;SDS011;13574;52.040;5.692;2022-08-19T11:34:11;28.50;;;22.05;;
25717;SDS011;13574;52.040;5.692;2022-08-19T11:36:41;26.50;;;20.38;;
25717;SDS011;13574;52.040;5.692;2022-08-19T11:39:10;27.60;;;20.58;;
25717;SDS011;13574;52.040;5.692;2022-08-19T11:41:37;24.42;;;19.85;;
25717;SDS011;13574;52.040;5.692;2022-08-19T11:44:04;32.25;;;22.45;;
25717;SDS011;13574;52.040;5.692;2022-08-19T11:46:30;27.42;;;21.13;;
25717;SDS011;13574;52.040;5.692;2022-08-19T11:48:58;24.40;;;19.63;;
25717;SDS011;13574;52.040;5.692;2022-08-19T11:51:28;26.50;;;21.20;;
25717;SDS011;13574;52.040;5.692;2022-08-19T11:53:55;30.45;;;24.02;;
25717;SDS011;13574;52.040;5.692;2022-08-19T11:56:22;30.83;;;22.50;;
25717;SDS011;13574;52.040;5.692;2022-08-19T11:58:49;29.95;;;22.42;;
25717;SDS011;13574;52.040;5.692;2022-08-19T12:01:17;29.35;;;21.13;;
25717;SDS011;13574;52.040;5.692;2022-08-19T12:03:45;30.48;;;23.42;;
25717;SDS011;13574;52.040;5.692;2022-08-19T12:06:17;42.97;;;24.75;;
25717;SDS011;13574;52.040;5.692;2022-08-19T12:08:44;39.42;;;24.17;;
25717;SDS011;13574;52.040;5.692;2022-08-19T12:11:11;30.80;;;22.67;;
25717;SDS011;13574;52.040;5.692;2022-08-19T12:13:38;30.70;;;22.92;;
25717;SDS011;13574;52.040;5.692;2022-08-19T12:16:08;33.85;;;24.58;;
25717;SDS011;13574;52.040;5.692;2022-08-19T12:18:37;30.63;;;25.08;;
25717;SDS011;13574;52.040;5.692;2022-08-19T12:21:09;34.55;;;26.85;;
25717;SDS011;13574;52.040;5.692;2022-08-19T12:23:36;31.92;;;25.02;;
25717;SDS011;13574;52.040;5.692;2022-08-19T12:26:02;32.00;;;26.10;;
25717;SDS011;13574;52.040;5.692;2022-08-19T12:28:28;34.03;;;23.83;;
25717;SDS011;13574;52.040;5.692;2022-08-19T12:30:55;33.65;;;24.05;;
25717;SDS011;13574;52.040;5.692;2022-08-19T12:33:21;28.55;;;23.35;;
25717;SDS011;13574;52.040;5.692;2022-08-19T12:35:50;29.85;;;22.38;;
25717;SDS011;13574;52.040;5.692;2022-08-19T12:38:17;30.95;;;22.67;;
25717;SDS011;13574;52.040;5.692;2022-08-19T12:40:46;29.90;;;24.58;;
25717;SDS011;13574;52.040;5.692;2022-08-19T12:43:15;31.98;;;26.02;;
25717;SDS011;13574;52.040;5.692;2022-08-19T12:45:41;31.50;;;24.92;;
25717;SDS011;13574;52.040;5.692;2022-08-19T12:48:07;32.08;;;25.30;;
25717;SDS011;13574;52.040;5.692;2022-08-19T12:50:38;30.30;;;24.42;;
25717;SDS011;13574;52.040;5.692;2022-08-19T12:53:12;30.20;;;24.23;;
25717;SDS011;13574;52.040;5.692;2022-08-19T12:55:39;30.23;;;22.67;;
25717;SDS011;13574;52.040;5.692;2022-08-19T12:58:08;27.73;;;23.20;;
25717;SDS011;13574;52.040;5.692;2022-08-19T13:00:44;33.67;;;26.45;;
25717;SDS011;13574;52.040;5.692;2022-08-19T13:03:13;33.42;;;25.30;;
25717;SDS011;13574;52.040;5.692;2022-08-19T13:05:55;30.02;;;23.75;;
25717;SDS011;13574;52.040;5.692;2022-08-19T13:08:21;30.35;;;23.98;;
25717;SDS011;13574;52.040;5.692;2022-08-19T13:11:06;28.30;;;24.15;;
25717;SDS011;13574;52.040;5.692;2022-08-19T13:13:46;31.48;;;26.38;;
25717;SDS011;13574;52.040;5.692;2022-08-19T13:16:32;28.77;;;23.70;;
25717;SDS011;13574;52.040;5.692;2022-08-19T13:19:01;34.65;;;26.60;;
25717;SDS011;13574;52.040;5.692;2022-08-19T13:21:29;31.88;;;26.90;;
25717;SDS011;13574;52.040;5.692;2022-08-19T13:24:05;31.77;;;24.95;;
25717;SDS011;13574;52.040;5.692;2022-08-19T13:26:33;35.22;;;27.77;;
25717;SDS011;13574;52.040;5.692;2022-08-19T13:28:59;30.58;;;26.02;;
25717;SDS011;13574;52.040;5.692;2022-08-19T13:31:43;33.83;;;24.95;;
25717;SDS011;13574;52.040;5.692;2022-08-19T13:34:31;33.80;;;27.45;;
25717;SDS011;13574;52.040;5.692;2022-08-19T13:36:59;37.00;;;26.33;;
25717;SDS011;13574;52.040;5.692;2022-08-19T13:39:49;31.73;;;25.50;;
25717;SDS011;13574;52.040;5.692;2022-08-19T13:42:13;30.70;;;26.67;;
25717;SDS011;13574;52.040;5.692;2022-08-19T13:44:39;32.22;;;27.60;;
25717;SDS011;13574;52.040;5.692;2022-08-19T13:47:05;34.47;;;29.60;;
25717;SDS011;13574;52.040;5.692;2022-08-19T13:49:34;38.10;;;30.02;;
25717;SDS011;13574;52.040;5.692;2022-08-19T13:52:05;37.08;;;30.33;;
25717;SDS011;13574;52.040;5.692;2022-08-19T13:54:33;37.15;;;30.13;;
25717;SDS011;13574;52.040;5.692;2022-08-19T13:56:59;34.92;;;29.55;;
25717;SDS011;13574;52.040;5.692;2022-08-19T13:59:25;35.78;;;29.92;;
25717;SDS011;13574;52.040;5.692;2022-08-19T14:01:50;40.58;;;29.05;;
25717;SDS011;13574;52.040;5.692;2022-08-19T14:04:16;35.75;;;28.40;;
25717;SDS011;13574;52.040;5.692;2022-08-19T14:06:42;34.13;;;27.02;;
25717;SDS011;13574;52.040;5.692;2022-08-19T14:09:07;36.63;;;27.98;;
25717;SDS011;13574;52.040;5.692;2022-08-19T14:11:40;37.83;;;29.58;;
25717;SDS011;13574;52.040;5.692;2022-08-19T14:14:14;33.00;;;27.00;;
25717;SDS011;13574;52.040;5.692;2022-08-19T14:16:40;33.60;;;26.23;;
25717;SDS011;13574;52.040;5.692;2022-08-19T14:19:06;31.30;;;25.65;;
25717;SDS011;13574;52.040;5.692;2022-08-19T14:21:32;37.35;;;27.02;;
25717;SDS011;13574;52.040;5.692;2022-08-19T14:23:59;35.65;;;26.67;;
25717;SDS011;13574;52.040;5.692;2022-08-19T14:26:26;35.42;;;27.20;;
25717;SDS011;13574;52.040;5.692;2022-08-19T14:28:52;34.20;;;28.73;;
25717;SDS011;13574;52.040;5.692;2022-08-19T14:31:18;36.88;;;27.50;;
25717;SDS011;13574;52.040;5.692;2022-08-19T14:33:46;39.15;;;29.00;;
25717;SDS011;13574;52.040;5.692;2022-08-19T14:36:12;36.67;;;27.17;;
25717;SDS011;13574;52.040;5.692;2022-08-19T14:38:38;35.55;;;25.52;;
25717;SDS011;13574;52.040;5.692;2022-08-19T14:41:07;32.83;;;27.00;;
25717;SDS011;13574;52.040;5.692;2022-08-19T14:43:36;26.77;;;20.67;;